sensor_id;sensor_type;location;lat;lon;timestamp;P1;durP1;ratioP1;P2;durP2;ratioP2
55368;SDS011;41247;49.736;8.752;2023-11-21T00:00:16;9.38;;;3.58;;
55368;SDS011;41247;49.736;8.752;2023-11-21T00:03:57;8.43;;;3.70;;
55368;SDS011;41247;49.736;8.752;2023-11-21T00:07:38;5.00;;;2.80;;
55368;SDS011;41247;49.736;8.752;2023-11-21T00:15:19;4.25;;;1.95;;
55368;SDS011;41247;49.736;8.752;2023-11-21T00:18:59;4.70;;;1.98;;
55368;SDS011;41247;49.736;8.752;2023-11-21T00:22:40;5.22;;;2.50;;
55368;SDS011;41247;49.736;8.752;2023-11-21T00:26:21;5.53;;;1.85;;
55368;SDS011;41247;49.736;8.752;2023-11-21T00:30:01;2.65;;;1.65;;
55368;SDS011;41247;49.736;8.752;2023-11-21T00:33:43;5.07;;;1.60;;
55368;SDS011;41247;49.736;8.752;2023-11-21T00:37:23;4.97;;;1.88;;
55368;SDS011;41247;49.736;8.752;2023-11-21T00:41:04;4.88;;;1.60;;
55368;SDS011;41247;49.736;8.752;2023-11-21T00:44:45;5.95;;;1.48;;
55368;SDS011;41247;49.736;8.752;2023-11-21T00:48:26;2.20;;;1.48;;
55368;SDS011;41247;49.736;8.752;2023-11-21T00:52:07;1.77;;;1.13;;
55368;SDS011;41247;49.736;8.752;2023-11-21T00:55:47;3.35;;;1.60;;
55368;SDS011;41247;49.736;8.752;2023-11-21T00:59:28;2.45;;;1.42;;
55368;SDS011;41247;49.736;8.752;2023-11-21T01:03:08;3.60;;;1.80;;
55368;SDS011;41247;49.736;8.752;2023-11-21T01:06:49;5.30;;;2.00;;
55368;SDS011;41247;49.736;8.752;2023-11-21T01:10:30;2.38;;;1.65;;
55368;SDS011;41247;49.736;8.752;2023-11-21T01:14:10;5.20;;;2.13;;
55368;SDS011;41247;49.736;8.752;2023-11-21T01:17:51;3.58;;;1.83;;
55368;SDS011;41247;49.736;8.752;2023-11-21T01:21:32;6.53;;;2.75;;
55368;SDS011;41247;49.736;8.752;2023-11-21T01:25:12;5.43;;;2.45;;
55368;SDS011;41247;49.736;8.752;2023-11-21T01:28:53;4.88;;;3.00;;
55368;SDS011;41247;49.736;8.752;2023-11-21T01:32:33;5.65;;;2.70;;
55368;SDS011;41247;49.736;8.752;2023-11-21T01:36:14;5.93;;;3.85;;
55368;SDS011;41247;49.736;8.752;2023-11-21T01:39:55;7.82;;;3.78;;
55368;SDS011;41247;49.736;8.752;2023-11-21T01:43:35;10.25;;;4.20;;
55368;SDS011;41247;49.736;8.752;2023-11-21T01:47:16;18.65;;;4.53;;
55368;SDS011;41247;49.736;8.752;2023-11-21T01:50:57;16.08;;;5.18;;
55368;SDS011;41247;49.736;8.752;2023-11-21T01:54:38;14.07;;;4.95;;
55368;SDS011;41247;49.736;8.752;2023-11-21T01:58:20;11.75;;;4.28;;
55368;SDS011;41247;49.736;8.752;2023-11-21T02:02:01;9.80;;;4.18;;
55368;SDS011;41247;49.736;8.752;2023-11-21T02:05:46;11.82;;;3.95;;
55368;SDS011;41247;49.736;8.752;2023-11-21T02:09:33;6.78;;;3.47;;
55368;SDS011;41247;49.736;8.752;2023-11-21T02:13:13;9.07;;;3.38;;
55368;SDS011;41247;49.736;8.752;2023-11-21T02:16:54;7.75;;;4.10;;
55368;SDS011;41247;49.736;8.752;2023-11-21T02:20:35;7.10;;;3.80;;
55368;SDS011;41247;49.736;8.752;2023-11-21T02:24:15;10.93;;;4.15;;
55368;SDS011;41247;49.736;8.752;2023-11-21T02:27:57;8.15;;;3.72;;
55368;SDS011;41247;49.736;8.752;2023-11-21T02:31:39;12.20;;;4.68;;
55368;SDS011;41247;49.736;8.752;2023-11-21T02:35:20;14.80;;;5.32;;
55368;SDS011;41247;49.736;8.752;2023-11-21T02:39:01;16.27;;;6.03;;
55368;SDS011;41247;49.736;8.752;2023-11-21T02:42:41;10.85;;;5.63;;
55368;SDS011;41247;49.736;8.752;2023-11-21T02:46:22;13.38;;;5.57;;
55368;SDS011;41247;49.736;8.752;2023-11-21T02:50:02;17.55;;;6.32;;
55368;SDS011;41247;49.736;8.752;2023-11-21T02:53:44;14.23;;;6.30;;
55368;SDS011;41247;49.736;8.752;2023-11-21T02:57:24;9.55;;;5.55;;
55368;SDS011;41247;49.736;8.752;2023-11-21T03:01:05;12.65;;;5.53;;
55368;SDS011;41247;49.736;8.752;2023-11-21T03:04:45;9.43;;;4.20;;
55368;SDS011;41247;49.736;8.752;2023-11-21T03:08:26;13.80;;;4.60;;
55368;SDS011;41247;49.736;8.752;2023-11-21T03:12:07;8.90;;;4.15;;
55368;SDS011;41247;49.736;8.752;2023-11-21T03:15:49;9.73;;;4.25;;
55368;SDS011;41247;49.736;8.752;2023-11-21T03:19:30;7.38;;;3.90;;
55368;SDS011;41247;49.736;8.752;2023-11-21T03:23:11;6.03;;;3.42;;
55368;SDS011;41247;49.736;8.752;2023-11-21T03:26:52;13.32;;;3.72;;
55368;SDS011;41247;49.736;8.752;2023-11-21T03:30:32;5.63;;;3.60;;
55368;SDS011;41247;49.736;8.752;2023-11-21T03:34:23;6.93;;;4.30;;
55368;SDS011;41247;49.736;8.752;2023-11-21T03:38:06;9.27;;;4.20;;
55368;SDS011;41247;49.736;8.752;2023-11-21T03:41:46;7.25;;;4.03;;
55368;SDS011;41247;49.736;8.752;2023-11-21T03:45:27;7.60;;;4.85;;
55368;SDS011;41247;49.736;8.752;2023-11-21T03:49:08;8.68;;;4.28;;
55368;SDS011;41247;49.736;8.752;2023-11-21T03:52:48;7.78;;;4.00;;
55368;SDS011;41247;49.736;8.752;2023-11-21T03:56:29;8.32;;;4.32;;
55368;SDS011;41247;49.736;8.752;2023-11-21T04:00:09;6.53;;;3.95;;
55368;SDS011;41247;49.736;8.752;2023-11-21T04:03:52;7.88;;;4.00;;
55368;SDS011;41247;49.736;8.752;2023-11-21T04:07:32;9.98;;;4.75;;
55368;SDS011;41247;49.736;8.752;2023-11-21T04:11:13;6.72;;;4.28;;
55368;SDS011;41247;49.736;8.752;2023-11-21T04:14:54;7.78;;;5.13;;
55368;SDS011;41247;49.736;8.752;2023-11-21T04:18:38;13.65;;;5.57;;
55368;SDS011;41247;49.736;8.752;2023-11-21T04:22:19;11.10;;;5.10;;
55368;SDS011;41247;49.736;8.752;2023-11-21T04:25:59;10.30;;;5.78;;
55368;SDS011;41247;49.736;8.752;2023-11-21T04:29:40;12.63;;;6.80;;
55368;SDS011;41247;49.736;8.752;2023-11-21T04:33:21;13.13;;;6.97;;
55368;SDS011;41247;49.736;8.752;2023-11-21T04:37:02;12.35;;;7.13;;
55368;SDS011;41247;49.736;8.752;2023-11-21T04:40:42;12.50;;;7.03;;
55368;SDS011;41247;49.736;8.752;2023-11-21T04:44:23;12.38;;;7.25;;
55368;SDS011;41247;49.736;8.752;2023-11-21T04:48:03;20.27;;;8.45;;
55368;SDS011;41247;49.736;8.752;2023-11-21T04:51:44;16.40;;;8.02;;
55368;SDS011;41247;49.736;8.752;2023-11-21T04:55:25;18.23;;;8.25;;
55368;SDS011;41247;49.736;8.752;2023-11-21T04:59:05;15.68;;;7.93;;
55368;SDS011;41247;49.736;8.752;2023-11-21T05:02:46;15.27;;;8.45;;
55368;SDS011;41247;49.736;8.752;2023-11-21T05:06:27;13.38;;;7.68;;
55368;SDS011;41247;49.736;8.752;2023-11-21T05:10:08;14.20;;;7.43;;
55368;SDS011;41247;49.736;8.752;2023-11-21T05:13:49;16.13;;;7.85;;
55368;SDS011;41247;49.736;8.752;2023-11-21T05:17:29;13.90;;;7.53;;
55368;SDS011;41247;49.736;8.752;2023-11-21T05:21:10;14.45;;;7.30;;
55368;SDS011;41247;49.736;8.752;2023-11-21T05:24:51;16.35;;;7.88;;
55368;SDS011;41247;49.736;8.752;2023-11-21T05:28:32;15.18;;;7.65;;
55368;SDS011;41247;49.736;8.752;2023-11-21T05:32:12;15.93;;;8.77;;
55368;SDS011;41247;49.736;8.752;2023-11-21T05:35:53;18.67;;;8.55;;
55368;SDS011;41247;49.736;8.752;2023-11-21T05:39:33;20.13;;;10.50;;
55368;SDS011;41247;49.736;8.752;2023-11-21T05:43:14;17.33;;;8.10;;
55368;SDS011;41247;49.736;8.752;2023-11-21T05:46:54;14.23;;;6.40;;
55368;SDS011;41247;49.736;8.752;2023-11-21T05:50:35;26.15;;;7.50;;
55368;SDS011;41247;49.736;8.752;2023-11-21T05:54:17;14.23;;;6.97;;
55368;SDS011;41247;49.736;8.752;2023-11-21T05:57:57;17.02;;;6.82;;
55368;SDS011;41247;49.736;8.752;2023-11-21T06:05:29;89.68;;;7.38;;
55368;SDS011;41247;49.736;8.752;2023-11-21T06:09:09;18.30;;;8.15;;
55368;SDS011;41247;49.736;8.752;2023-11-21T06:12:50;37.33;;;7.70;;
55368;SDS011;41247;49.736;8.752;2023-11-21T06:25:41;139.10;;;8.57;;
55368;SDS011;41247;49.736;8.752;2023-11-21T06:37:55;36.53;;;7.35;;
55368;SDS011;41247;49.736;8.752;2023-11-21T06:49:24;314.20;;;10.88;;
55368;SDS011;41247;49.736;8.752;2023-11-21T06:53:15;7.75;;;4.13;;
55368;SDS011;41247;49.736;8.752;2023-11-21T07:06:12;8.57;;;4.38;;
55368;SDS011;41247;49.736;8.752;2023-11-21T07:18:17;23.45;;;7.22;;
55368;SDS011;41247;49.736;8.752;2023-11-21T07:39:16;13.30;;;5.13;;
55368;SDS011;41247;49.736;8.752;2023-11-21T07:43:00;12.70;;;4.85;;
55368;SDS011;41247;49.736;8.752;2023-11-21T07:51:13;89.53;;;7.07;;
55368;SDS011;41247;49.736;8.752;2023-11-21T09:15:28;32.70;;;9.95;;
55368;SDS011;41247;49.736;8.752;2023-11-21T09:19:12;23.98;;;9.35;;
55368;SDS011;41247;49.736;8.752;2023-11-21T10:05:40;14.70;;;7.07;;
55368;SDS011;41247;49.736;8.752;2023-11-21T12:24:57;9.88;;;3.88;;
55368;SDS011;41247;49.736;8.752;2023-11-21T13:52:30;10.55;;;6.03;;
55368;SDS011;41247;49.736;8.752;2023-11-21T14:01:06;17.52;;;6.43;;
55368;SDS011;41247;49.736;8.752;2023-11-21T14:04:46;15.65;;;6.15;;
55368;SDS011;41247;49.736;8.752;2023-11-21T14:08:48;17.67;;;5.55;;
55368;SDS011;41247;49.736;8.752;2023-11-21T14:13:00;17.55;;;5.43;;
55368;SDS011;41247;49.736;8.752;2023-11-21T14:16:47;16.88;;;6.32;;
55368;SDS011;41247;49.736;8.752;2023-11-21T14:24:42;16.65;;;6.10;;
55368;SDS011;41247;49.736;8.752;2023-11-21T14:33:15;18.17;;;7.07;;
55368;SDS011;41247;49.736;8.752;2023-11-21T14:51:23;18.48;;;7.68;;
55368;SDS011;41247;49.736;8.752;2023-11-21T14:55:04;13.52;;;7.32;;
55368;SDS011;41247;49.736;8.752;2023-11-21T14:58:51;17.23;;;6.97;;
55368;SDS011;41247;49.736;8.752;2023-11-21T15:03:12;20.60;;;7.80;;
55368;SDS011;41247;49.736;8.752;2023-11-21T15:07:21;17.80;;;7.63;;
55368;SDS011;41247;49.736;8.752;2023-11-21T15:11:02;16.20;;;7.05;;
55368;SDS011;41247;49.736;8.752;2023-11-21T15:14:54;18.25;;;6.70;;
55368;SDS011;41247;49.736;8.752;2023-11-21T15:22:55;19.50;;;7.45;;
55368;SDS011;41247;49.736;8.752;2023-11-21T15:26:36;17.80;;;7.07;;
55368;SDS011;41247;49.736;8.752;2023-11-21T15:30:16;15.93;;;7.00;;
55368;SDS011;41247;49.736;8.752;2023-11-21T15:33:59;14.23;;;7.07;;
55368;SDS011;41247;49.736;8.752;2023-11-21T15:37:40;14.88;;;6.53;;
55368;SDS011;41247;49.736;8.752;2023-11-21T15:41:21;18.40;;;6.95;;
55368;SDS011;41247;49.736;8.752;2023-11-21T15:45:02;15.45;;;6.65;;
55368;SDS011;41247;49.736;8.752;2023-11-21T15:48:43;19.73;;;6.60;;
55368;SDS011;41247;49.736;8.752;2023-11-21T15:52:24;17.88;;;7.50;;
55368;SDS011;41247;49.736;8.752;2023-11-21T15:56:04;18.75;;;7.60;;
55368;SDS011;41247;49.736;8.752;2023-11-21T15:59:45;14.48;;;6.90;;
55368;SDS011;41247;49.736;8.752;2023-11-21T16:07:35;15.43;;;6.70;;
55368;SDS011;41247;49.736;8.752;2023-11-21T16:11:15;15.93;;;6.32;;
55368;SDS011;41247;49.736;8.752;2023-11-21T16:14:56;14.63;;;6.68;;
55368;SDS011;41247;49.736;8.752;2023-11-21T16:18:37;15.48;;;7.28;;
55368;SDS011;41247;49.736;8.752;2023-11-21T16:22:17;12.50;;;5.38;;
55368;SDS011;41247;49.736;8.752;2023-11-21T16:26:01;16.95;;;6.10;;
55368;SDS011;41247;49.736;8.752;2023-11-21T16:30:07;12.38;;;5.43;;
55368;SDS011;41247;49.736;8.752;2023-11-21T16:33:50;15.20;;;6.18;;
55368;SDS011;41247;49.736;8.752;2023-11-21T16:37:34;12.50;;;5.60;;
55368;SDS011;41247;49.736;8.752;2023-11-21T16:41:17;9.00;;;5.47;;
55368;SDS011;41247;49.736;8.752;2023-11-21T16:44:57;20.45;;;7.32;;
55368;SDS011;41247;49.736;8.752;2023-11-21T16:48:38;15.95;;;7.03;;
55368;SDS011;41247;49.736;8.752;2023-11-21T16:52:19;15.98;;;7.45;;
55368;SDS011;41247;49.736;8.752;2023-11-21T16:55:59;17.98;;;7.60;;
55368;SDS011;41247;49.736;8.752;2023-11-21T16:59:40;16.65;;;7.75;;
55368;SDS011;41247;49.736;8.752;2023-11-21T17:03:21;18.63;;;8.13;;
55368;SDS011;41247;49.736;8.752;2023-11-21T17:07:01;19.98;;;8.23;;
55368;SDS011;41247;49.736;8.752;2023-11-21T17:10:53;17.48;;;7.28;;
55368;SDS011;41247;49.736;8.752;2023-11-21T17:14:34;19.48;;;8.25;;
55368;SDS011;41247;49.736;8.752;2023-11-21T17:18:14;18.35;;;8.82;;
55368;SDS011;41247;49.736;8.752;2023-11-21T17:21:58;22.30;;;8.90;;
55368;SDS011;41247;49.736;8.752;2023-11-21T17:25:39;22.10;;;9.27;;
55368;SDS011;41247;49.736;8.752;2023-11-21T17:29:19;19.95;;;8.57;;
55368;SDS011;41247;49.736;8.752;2023-11-21T17:33:00;21.83;;;8.05;;
55368;SDS011;41247;49.736;8.752;2023-11-21T17:36:41;19.90;;;8.48;;
55368;SDS011;41247;49.736;8.752;2023-11-21T17:40:22;18.13;;;7.70;;
55368;SDS011;41247;49.736;8.752;2023-11-21T17:44:03;15.27;;;6.32;;
55368;SDS011;41247;49.736;8.752;2023-11-21T17:47:43;20.95;;;8.07;;
55368;SDS011;41247;49.736;8.752;2023-11-21T17:51:24;21.23;;;9.23;;
55368;SDS011;41247;49.736;8.752;2023-11-21T17:55:05;25.25;;;10.23;;
55368;SDS011;41247;49.736;8.752;2023-11-21T17:58:54;24.65;;;9.25;;
55368;SDS011;41247;49.736;8.752;2023-11-21T18:02:35;21.25;;;9.13;;
55368;SDS011;41247;49.736;8.752;2023-11-21T18:06:16;14.48;;;7.53;;
55368;SDS011;41247;49.736;8.752;2023-11-21T18:09:56;16.42;;;7.55;;
55368;SDS011;41247;49.736;8.752;2023-11-21T18:13:37;23.85;;;9.77;;
55368;SDS011;41247;49.736;8.752;2023-11-21T18:17:17;19.75;;;9.10;;
55368;SDS011;41247;49.736;8.752;2023-11-21T18:20:58;26.65;;;11.80;;
55368;SDS011;41247;49.736;8.752;2023-11-21T18:24:40;26.25;;;10.65;;
55368;SDS011;41247;49.736;8.752;2023-11-21T18:28:22;19.90;;;9.23;;
55368;SDS011;41247;49.736;8.752;2023-11-21T18:32:03;22.33;;;9.68;;
55368;SDS011;41247;49.736;8.752;2023-11-21T18:35:44;19.38;;;9.52;;
55368;SDS011;41247;49.736;8.752;2023-11-21T18:39:28;36.45;;;14.40;;
55368;SDS011;41247;49.736;8.752;2023-11-21T18:43:09;30.33;;;11.68;;
55368;SDS011;41247;49.736;8.752;2023-11-21T18:47:02;24.20;;;10.30;;
55368;SDS011;41247;49.736;8.752;2023-11-21T18:50:43;19.40;;;9.73;;
55368;SDS011;41247;49.736;8.752;2023-11-21T18:54:23;24.50;;;10.80;;
55368;SDS011;41247;49.736;8.752;2023-11-21T18:58:04;23.02;;;10.38;;
55368;SDS011;41247;49.736;8.752;2023-11-21T19:01:44;25.25;;;11.20;;
55368;SDS011;41247;49.736;8.752;2023-11-21T19:05:25;28.88;;;11.93;;
55368;SDS011;41247;49.736;8.752;2023-11-21T19:09:06;30.60;;;13.20;;
55368;SDS011;41247;49.736;8.752;2023-11-21T19:12:46;25.27;;;11.00;;
55368;SDS011;41247;49.736;8.752;2023-11-21T19:16:27;23.30;;;11.00;;
55368;SDS011;41247;49.736;8.752;2023-11-21T19:20:07;30.90;;;13.02;;
55368;SDS011;41247;49.736;8.752;2023-11-21T19:23:48;29.58;;;12.55;;
55368;SDS011;41247;49.736;8.752;2023-11-21T19:27:29;32.40;;;12.48;;
55368;SDS011;41247;49.736;8.752;2023-11-21T19:31:20;29.05;;;11.95;;
55368;SDS011;41247;49.736;8.752;2023-11-21T19:35:02;39.55;;;13.23;;
55368;SDS011;41247;49.736;8.752;2023-11-21T19:38:43;28.27;;;12.70;;
55368;SDS011;41247;49.736;8.752;2023-11-21T19:42:24;27.23;;;12.20;;
55368;SDS011;41247;49.736;8.752;2023-11-21T19:46:05;29.35;;;13.00;;
55368;SDS011;41247;49.736;8.752;2023-11-21T19:49:45;30.88;;;13.63;;
55368;SDS011;41247;49.736;8.752;2023-11-21T19:53:26;35.67;;;14.13;;
55368;SDS011;41247;49.736;8.752;2023-11-21T19:57:07;31.30;;;12.32;;
55368;SDS011;41247;49.736;8.752;2023-11-21T20:00:47;31.70;;;12.80;;
55368;SDS011;41247;49.736;8.752;2023-11-21T20:04:28;31.98;;;12.00;;
55368;SDS011;41247;49.736;8.752;2023-11-21T20:11:53;27.92;;;12.98;;
55368;SDS011;41247;49.736;8.752;2023-11-21T20:15:34;24.60;;;11.20;;
55368;SDS011;41247;49.736;8.752;2023-11-21T20:19:14;22.02;;;10.90;;
55368;SDS011;41247;49.736;8.752;2023-11-21T20:22:55;21.80;;;10.40;;
55368;SDS011;41247;49.736;8.752;2023-11-21T20:26:36;20.58;;;9.52;;
55368;SDS011;41247;49.736;8.752;2023-11-21T20:30:17;20.02;;;9.65;;
55368;SDS011;41247;49.736;8.752;2023-11-21T20:33:57;23.65;;;11.48;;
55368;SDS011;41247;49.736;8.752;2023-11-21T20:37:38;22.35;;;9.90;;
55368;SDS011;41247;49.736;8.752;2023-11-21T20:41:22;18.63;;;9.82;;
55368;SDS011;41247;49.736;8.752;2023-11-21T20:45:03;19.10;;;9.70;;
55368;SDS011;41247;49.736;8.752;2023-11-21T20:48:44;24.25;;;9.80;;
55368;SDS011;41247;49.736;8.752;2023-11-21T20:52:25;22.85;;;10.73;;
55368;SDS011;41247;49.736;8.752;2023-11-21T20:56:05;18.30;;;9.65;;
55368;SDS011;41247;49.736;8.752;2023-11-21T20:59:47;15.60;;;8.65;;
55368;SDS011;41247;49.736;8.752;2023-11-21T21:03:27;19.48;;;9.38;;
55368;SDS011;41247;49.736;8.752;2023-11-21T21:07:08;17.58;;;9.25;;
55368;SDS011;41247;49.736;8.752;2023-11-21T21:10:48;18.98;;;9.32;;
55368;SDS011;41247;49.736;8.752;2023-11-21T21:14:29;16.67;;;8.45;;
55368;SDS011;41247;49.736;8.752;2023-11-21T21:18:09;16.75;;;8.45;;
55368;SDS011;41247;49.736;8.752;2023-11-21T21:21:50;15.38;;;7.05;;
55368;SDS011;41247;49.736;8.752;2023-11-21T21:25:30;16.23;;;8.02;;
55368;SDS011;41247;49.736;8.752;2023-11-21T21:29:11;14.45;;;7.03;;
55368;SDS011;41247;49.736;8.752;2023-11-21T21:32:53;13.32;;;6.97;;
55368;SDS011;41247;49.736;8.752;2023-11-21T21:36:34;15.73;;;6.53;;
55368;SDS011;41247;49.736;8.752;2023-11-21T21:40:14;10.68;;;4.90;;
55368;SDS011;41247;49.736;8.752;2023-11-21T21:43:55;9.65;;;5.07;;
55368;SDS011;41247;49.736;8.752;2023-11-21T21:47:35;9.55;;;5.20;;
55368;SDS011;41247;49.736;8.752;2023-11-21T21:51:16;10.30;;;5.43;;
55368;SDS011;41247;49.736;8.752;2023-11-21T21:54:58;11.43;;;5.50;;
55368;SDS011;41247;49.736;8.752;2023-11-21T21:58:42;10.85;;;5.20;;
55368;SDS011;41247;49.736;8.752;2023-11-21T22:02:22;8.88;;;4.93;;
55368;SDS011;41247;49.736;8.752;2023-11-21T22:06:03;8.82;;;4.72;;
55368;SDS011;41247;49.736;8.752;2023-11-21T22:09:51;8.82;;;4.95;;
55368;SDS011;41247;49.736;8.752;2023-11-21T22:13:32;11.45;;;5.80;;
55368;SDS011;41247;49.736;8.752;2023-11-21T22:17:12;13.35;;;5.78;;
55368;SDS011;41247;49.736;8.752;2023-11-21T22:20:53;12.77;;;5.80;;
55368;SDS011;41247;49.736;8.752;2023-11-21T22:24:34;11.20;;;5.72;;
55368;SDS011;41247;49.736;8.752;2023-11-21T22:28:17;10.85;;;6.05;;
55368;SDS011;41247;49.736;8.752;2023-11-21T22:31:58;11.35;;;5.45;;
55368;SDS011;41247;49.736;8.752;2023-11-21T22:35:38;12.07;;;6.30;;
55368;SDS011;41247;49.736;8.752;2023-11-21T22:39:19;14.20;;;5.55;;
55368;SDS011;41247;49.736;8.752;2023-11-21T22:43:00;12.77;;;7.93;;
55368;SDS011;41247;49.736;8.752;2023-11-21T22:46:41;11.30;;;5.22;;
55368;SDS011;41247;49.736;8.752;2023-11-21T22:50:23;8.88;;;4.72;;
55368;SDS011;41247;49.736;8.752;2023-11-21T22:54:03;10.80;;;5.10;;
55368;SDS011;41247;49.736;8.752;2023-11-21T22:57:44;6.47;;;4.13;;
55368;SDS011;41247;49.736;8.752;2023-11-21T23:01:25;10.43;;;4.82;;
55368;SDS011;41247;49.736;8.752;2023-11-21T23:05:06;8.75;;;4.47;;
55368;SDS011;41247;49.736;8.752;2023-11-21T23:08:47;8.52;;;4.70;;
55368;SDS011;41247;49.736;8.752;2023-11-21T23:12:28;7.32;;;4.18;;
55368;SDS011;41247;49.736;8.752;2023-11-21T23:16:09;9.35;;;4.10;;
55368;SDS011;41247;49.736;8.752;2023-11-21T23:19:55;11.15;;;4.75;;
55368;SDS011;41247;49.736;8.752;2023-11-21T23:23:45;8.67;;;4.67;;
55368;SDS011;41247;49.736;8.752;2023-11-21T23:27:26;10.27;;;4.55;;
55368;SDS011;41247;49.736;8.752;2023-11-21T23:31:08;10.70;;;4.80;;
55368;SDS011;41247;49.736;8.752;2023-11-21T23:34:49;11.40;;;5.03;;
55368;SDS011;41247;49.736;8.752;2023-11-21T23:38:29;9.50;;;4.53;;
55368;SDS011;41247;49.736;8.752;2023-11-21T23:42:10;9.32;;;5.15;;
55368;SDS011;41247;49.736;8.752;2023-11-21T23:45:52;10.18;;;4.85;;
55368;SDS011;41247;49.736;8.752;2023-11-21T23:49:33;10.40;;;4.63;;
55368;SDS011;41247;49.736;8.752;2023-11-21T23:53:13;8.95;;;4.93;;
55368;SDS011;41247;49.736;8.752;2023-11-21T23:56:56;8.57;;;4.80;;
